createdAt,value
2023-04-04T00:00:40.020Z,93.10
2023-04-04T00:03:10.021Z,93.20
2023-04-04T00:05:39.599Z,92.90
2023-04-04T00:08:11.321Z,92.80
2023-04-04T00:10:38.573Z,92.80
2023-04-04T00:13:05.820Z,93.10
2023-04-04T00:15:36.982Z,93.10
2023-04-04T00:18:04.366Z,92.90
2023-04-04T00:20:31.776Z,92.80
2023-04-04T00:23:00.872Z,92.70
2023-04-04T00:25:27.933Z,92.80
2023-04-04T00:27:54.923Z,93.10
2023-04-04T00:30:22.015Z,92.90
2023-04-04T00:32:49.092Z,93.00
2023-04-04T00:35:16.045Z,93.30
2023-04-04T00:37:43.138Z,93.50
2023-04-04T00:40:13.042Z,93.70
2023-04-04T00:42:40.570Z,93.30
2023-04-04T00:45:08.410Z,93.50
2023-04-04T00:47:38.006Z,93.50
2023-04-04T00:50:06.298Z,93.40
2023-04-04T00:52:33.202Z,93.30
2023-04-04T00:55:00.725Z,93.10
2023-04-04T00:57:33.016Z,93.10
2023-04-04T01:00:05.349Z,93.10
2023-04-04T01:02:32.483Z,93.20
2023-04-04T01:05:00.362Z,93.20
2023-04-04T01:07:27.937Z,93.20
2023-04-04T01:09:59.371Z,93.50
2023-04-04T01:12:28.909Z,93.50
2023-04-04T01:14:55.973Z,93.80
2023-04-04T01:17:24.197Z,93.60
2023-04-04T01:20:03.237Z,93.30
2023-04-04T01:22:39.031Z,93.40
2023-04-04T01:25:07.997Z,93.20
2023-04-04T01:27:39.408Z,92.40
2023-04-04T01:30:14.226Z,92.10
2023-04-04T01:33:08.282Z,92.00
2023-04-04T01:35:50.680Z,91.80
2023-04-04T01:38:38.750Z,91.90
2023-04-04T01:41:09.013Z,92.40
2023-04-04T01:43:39.420Z,92.40
2023-04-04T01:46:07.012Z,93.10
2023-04-04T01:48:36.196Z,93.20
2023-04-04T01:51:06.411Z,92.60
2023-04-04T01:53:33.774Z,92.50
2023-04-04T01:56:01.383Z,92.20
2023-04-04T01:58:32.239Z,92.00
2023-04-04T02:00:59.286Z,91.80
2023-04-04T02:03:28.500Z,92.00
2023-04-04T02:05:55.937Z,92.30
2023-04-04T02:08:22.818Z,92.40
2023-04-04T02:10:57.153Z,93.30
2023-04-04T02:13:27.473Z,93.10
2023-04-04T02:16:00.992Z,92.90
2023-04-04T02:18:28.516Z,92.90
2023-04-04T02:20:57.530Z,92.90
2023-04-04T02:23:24.799Z,93.00
2023-04-04T02:25:51.913Z,93.80
2023-04-04T02:28:22.722Z,93.70
2023-04-04T02:30:49.676Z,93.70
2023-04-04T02:33:21.237Z,93.20
2023-04-04T02:35:49.588Z,93.10
2023-04-04T02:38:18.731Z,93.30
2023-04-04T02:40:49.760Z,93.00
2023-04-04T02:43:17.245Z,92.80
2023-04-04T02:45:49.505Z,92.80
2023-04-04T02:48:29.779Z,92.60
2023-04-04T02:51:00.824Z,92.70
2023-04-04T02:53:28.270Z,92.60
2023-04-04T02:56:05.221Z,92.90
2023-04-04T02:58:35.318Z,93.10
2023-04-04T03:01:02.495Z,93.30
2023-04-04T03:03:35.043Z,93.10
2023-04-04T03:06:02.143Z,93.20
2023-04-04T03:08:29.209Z,93.00
2023-04-04T03:10:58.981Z,92.90
2023-04-04T03:13:26.070Z,92.90
2023-04-04T03:16:00.027Z,93.00
2023-04-04T03:18:27.719Z,93.30
2023-04-04T03:20:54.611Z,93.20
2023-04-04T03:23:21.468Z,93.30
2023-04-04T03:25:55.020Z,93.70
2023-04-04T03:28:24.441Z,93.50
2023-04-04T03:30:51.387Z,93.70
2023-04-04T03:33:21.978Z,93.80
2023-04-04T03:35:49.229Z,93.50
2023-04-04T03:38:18.270Z,93.80
2023-04-04T03:40:47.411Z,94.10
2023-04-04T03:43:17.458Z,94.30
2023-04-04T03:45:44.691Z,94.30
2023-04-04T03:48:13.879Z,94.10
2023-04-04T03:50:41.077Z,94.70
2023-04-04T03:53:11.147Z,94.90
2023-04-04T03:55:42.174Z,94.50
2023-04-04T03:58:09.709Z,94.50
2023-04-04T04:00:37.098Z,94.40
2023-04-04T04:03:04.142Z,94.80
2023-04-04T04:05:31.229Z,94.90
2023-04-04T04:07:58.487Z,95.30
2023-04-04T04:10:30.344Z,94.90
2023-04-04T04:12:57.847Z,95.00
2023-04-04T04:15:30.386Z,94.80
2023-04-04T04:18:15.317Z,94.70
2023-04-04T04:20:44.487Z,95.50
2023-04-04T04:23:13.997Z,95.50
2023-04-04T04:25:41.015Z,95.20
2023-04-04T04:28:16.024Z,95.00
2023-04-04T04:30:42.931Z,95.30
2023-04-04T04:33:13.413Z,95.60
2023-04-04T04:35:52.476Z,95.80
2023-04-04T04:38:26.332Z,95.60
2023-04-04T04:40:53.915Z,96.30
2023-04-04T04:43:27.784Z,96.40
2023-04-04T04:45:56.253Z,96.40
2023-04-04T04:48:23.295Z,96.30
2023-04-04T04:50:54.472Z,96.00
2023-04-04T04:53:41.949Z,96.10
2023-04-04T04:56:08.881Z,96.10
2023-04-04T04:58:39.487Z,96.10
2023-04-04T05:01:12.598Z,96.40
2023-04-04T05:03:40.463Z,96.40
2023-04-04T05:06:14.027Z,96.20
2023-04-04T05:08:41.637Z,96.60
2023-04-04T05:11:21.944Z,96.20
2023-04-04T05:13:49.048Z,95.90
2023-04-04T05:16:18.172Z,95.60
2023-04-04T05:18:47.233Z,95.60
2023-04-04T05:21:14.567Z,95.90
2023-04-04T05:23:48.643Z,95.80
2023-04-04T05:26:19.294Z,95.60
2023-04-04T05:28:49.297Z,95.50
2023-04-04T05:31:16.536Z,95.40
2023-04-04T05:33:44.154Z,95.30
2023-04-04T05:36:16.194Z,94.90
2023-04-04T05:38:52.119Z,95.00
2023-04-04T05:41:22.210Z,95.40
2023-04-04T05:43:50.965Z,95.60
2023-04-04T05:46:27.840Z,94.80
2023-04-04T05:48:54.876Z,94.30
2023-04-04T05:51:22.593Z,94.10
2023-04-04T05:54:07.823Z,94.10
2023-04-04T05:56:36.357Z,94.30
2023-04-04T05:59:07.978Z,93.60
2023-04-04T06:01:41.496Z,93.50
2023-04-04T06:04:18.065Z,93.30
2023-04-04T06:06:46.511Z,93.20
2023-04-04T06:09:14.982Z,93.20
2023-04-04T06:11:42.000Z,92.80
2023-04-04T06:14:13.248Z,92.80
2023-04-04T06:16:43.297Z,92.50
2023-04-04T06:19:10.368Z,92.40
2023-04-04T06:21:39.689Z,92.10
2023-04-04T06:24:10.587Z,92.00
2023-04-04T06:26:39.372Z,91.30
2023-04-04T06:29:06.934Z,91.40
2023-04-04T06:31:36.954Z,90.90
2023-04-04T06:34:09.780Z,90.80
2023-04-04T06:36:52.242Z,90.80
2023-04-04T06:39:19.766Z,90.60
2023-04-04T06:41:52.988Z,90.50
2023-04-04T06:44:24.820Z,90.30
2023-04-04T06:46:52.101Z,90.10
2023-04-04T06:49:19.251Z,89.70
2023-04-04T06:51:50.809Z,90.20
2023-04-04T06:54:19.994Z,88.50
2023-04-04T06:56:49.185Z,87.90
2023-04-04T06:59:16.751Z,87.10
2023-04-04T07:01:45.482Z,87.00
2023-04-04T07:04:12.533Z,86.60
2023-04-04T07:06:39.334Z,85.80
2023-04-04T07:09:15.479Z,86.20
2023-04-04T07:11:49.125Z,85.40
2023-04-04T07:14:16.461Z,85.90
2023-04-04T07:16:43.488Z,85.50
2023-04-04T07:19:10.315Z,85.40
2023-04-04T07:21:37.497Z,85.50
2023-04-04T07:24:04.513Z,85.20
2023-04-04T07:26:31.871Z,84.10
2023-04-04T07:29:01.487Z,83.50
2023-04-04T07:31:28.832Z,83.60
2023-04-04T07:33:55.890Z,82.80
2023-04-04T07:36:22.745Z,82.30
2023-04-04T07:38:52.005Z,82.40
2023-04-04T07:41:21.290Z,80.70
2023-04-04T07:43:54.189Z,80.90
2023-04-04T07:46:23.610Z,81.40
2023-04-04T07:48:50.717Z,80.80
2023-04-04T07:51:18.088Z,80.50
2023-04-04T07:53:47.297Z,79.80
2023-04-04T07:56:16.660Z,79.60
2023-04-04T07:58:44.038Z,80.60
2023-04-04T08:01:10.848Z,79.80
2023-04-04T08:03:40.066Z,78.60
2023-04-04T08:06:07.627Z,78.60
2023-04-04T08:08:34.436Z,78.10
2023-04-04T08:11:01.764Z,77.10
2023-04-04T08:13:36.093Z,77.50
2023-04-04T08:16:05.971Z,77.50
2023-04-04T08:18:35.914Z,76.20
2023-04-04T08:21:03.266Z,75.80
2023-04-04T08:23:30.767Z,75.40
2023-04-04T08:25:59.947Z,75.10
2023-04-04T08:28:27.938Z,76.00
2023-04-04T08:30:57.610Z,75.20
2023-04-04T08:33:34.227Z,75.40
2023-04-04T08:36:13.021Z,74.90
2023-04-04T08:38:39.946Z,74.00
2023-04-04T08:41:10.635Z,73.80
2023-04-04T08:43:41.189Z,74.60
2023-04-04T08:46:11.789Z,75.00
2023-04-04T08:48:41.760Z,74.20
2023-04-04T08:51:12.205Z,73.20
2023-04-04T08:53:39.457Z,72.90
2023-04-04T08:56:07.723Z,73.80
2023-04-04T08:58:39.120Z,73.70
2023-04-04T09:01:07.334Z,74.00
2023-04-04T09:03:36.933Z,73.40
2023-04-04T09:06:05.183Z,74.20
2023-04-04T09:08:35.312Z,73.40
2023-04-04T09:11:04.211Z,70.30
2023-04-04T09:13:31.420Z,70.30
2023-04-04T09:16:00.565Z,68.90
2023-04-04T09:18:28.670Z,68.50
2023-04-04T09:20:55.839Z,68.00
2023-04-04T09:23:25.927Z,67.20
2023-04-04T09:26:04.124Z,68.40
2023-04-04T09:28:35.473Z,67.50
2023-04-04T09:31:05.637Z,68.80
2023-04-04T09:33:36.445Z,68.80
2023-04-04T09:36:18.270Z,67.40
2023-04-04T09:38:46.324Z,68.30
2023-04-04T09:41:18.796Z,67.90
2023-04-04T09:43:46.790Z,66.40
2023-04-04T09:46:21.478Z,66.80
2023-04-04T09:48:51.577Z,68.00
2023-04-04T09:51:18.600Z,67.40
2023-04-04T09:53:48.348Z,67.50
2023-04-04T09:56:15.787Z,66.80
2023-04-04T09:59:00.633Z,68.40
2023-04-04T10:01:31.055Z,68.60
2023-04-04T10:03:58.540Z,68.10
2023-04-04T10:06:26.771Z,65.30
2023-04-04T10:08:53.819Z,65.80
2023-04-04T10:11:33.632Z,66.80
2023-04-04T10:14:04.809Z,67.10
2023-04-04T10:16:34.562Z,66.80
2023-04-04T10:19:02.939Z,64.90
2023-04-04T10:21:32.711Z,65.50
2023-04-04T10:24:03.191Z,66.20
2023-04-04T10:26:32.588Z,64.50
2023-04-04T10:29:01.791Z,64.20
2023-04-04T10:31:31.048Z,63.90
2023-04-04T10:34:24.013Z,63.90
2023-04-04T10:36:54.243Z,65.30
2023-04-04T10:39:30.907Z,63.30
2023-04-04T10:41:59.145Z,64.10
2023-04-04T10:44:40.173Z,63.50
2023-04-04T10:47:21.952Z,62.60
2023-04-04T10:49:50.628Z,63.60
2023-04-04T10:52:22.947Z,63.20
2023-04-04T10:54:53.370Z,64.30
2023-04-04T10:57:23.312Z,64.20
2023-04-04T11:00:06.622Z,64.50
2023-04-04T11:02:51.519Z,62.70
2023-04-04T11:05:42.341Z,64.00
2023-04-04T11:08:11.201Z,63.60
2023-04-04T11:10:53.484Z,64.20
2023-04-04T11:13:29.424Z,65.10
2023-04-04T11:16:00.188Z,65.30
2023-04-04T11:18:39.522Z,64.80
2023-04-04T11:21:12.920Z,64.40
2023-04-04T11:23:51.334Z,63.20
2023-04-04T11:26:33.038Z,61.70
2023-04-04T11:29:04.560Z,63.80
2023-04-04T11:31:35.630Z,62.80
2023-04-04T11:34:13.172Z,61.50
2023-04-04T11:36:40.741Z,61.10
2023-04-04T11:39:15.554Z,61.40
2023-04-04T11:41:50.198Z,60.10
2023-04-04T11:44:17.765Z,61.00
2023-04-04T11:46:46.410Z,63.10
2023-04-04T11:49:16.683Z,60.30
2023-04-04T11:51:43.823Z,61.30
2023-04-04T11:54:15.726Z,61.90
2023-04-04T11:56:46.135Z,61.80
2023-04-04T11:59:14.176Z,61.30
2023-04-04T12:01:41.974Z,60.50
2023-04-04T12:04:11.654Z,60.50
2023-04-04T12:06:40.113Z,60.30
2023-04-04T12:09:07.308Z,59.20
2023-04-04T12:11:34.876Z,60.30
2023-04-04T12:14:02.478Z,61.00
2023-04-04T12:16:30.283Z,58.90
2023-04-04T12:19:00.790Z,59.00
2023-04-04T12:21:31.699Z,59.20
2023-04-04T12:23:59.722Z,60.70
2023-04-04T12:26:31.759Z,60.70
2023-04-04T12:29:26.764Z,60.00
2023-04-04T12:31:55.647Z,58.80
2023-04-04T12:34:24.692Z,59.30
2023-04-04T12:36:57.377Z,58.30
2023-04-04T12:39:28.488Z,58.10
2023-04-04T12:41:58.954Z,58.20
2023-04-04T12:44:32.410Z,58.50
2023-04-04T12:47:04.498Z,58.40
2023-04-04T12:49:40.167Z,58.30
2023-04-04T12:52:09.107Z,58.50
2023-04-04T12:54:40.138Z,57.00
2023-04-04T12:57:11.419Z,57.60
2023-04-04T12:59:39.927Z,57.70
2023-04-04T13:02:16.315Z,58.80
2023-04-04T13:04:51.305Z,58.80
2023-04-04T13:07:48.967Z,59.30
2023-04-04T13:10:16.850Z,59.00
2023-04-04T13:13:01.203Z,58.10
2023-04-04T13:15:50.867Z,58.70
2023-04-04T13:18:23.668Z,57.60
2023-04-04T13:20:52.323Z,56.80
2023-04-04T13:23:24.677Z,57.60
2023-04-04T13:25:53.203Z,56.00
2023-04-04T13:28:20.283Z,57.80
2023-04-04T13:30:49.652Z,58.00
2023-04-04T13:33:18.153Z,57.00
2023-04-04T13:35:52.467Z,56.40
2023-04-04T13:38:19.610Z,55.80
2023-04-04T13:40:51.191Z,57.00
2023-04-04T13:43:20.980Z,56.50
2023-04-04T13:45:50.421Z,58.70
2023-04-04T13:48:17.679Z,57.30
2023-04-04T13:50:51.037Z,57.20
2023-04-04T13:53:21.067Z,56.40
2023-04-04T13:56:02.122Z,55.30
2023-04-04T13:58:35.160Z,56.40
2023-04-04T14:01:04.218Z,56.00
2023-04-04T14:03:33.752Z,57.20
2023-04-04T14:06:09.761Z,56.60
2023-04-04T14:08:37.645Z,55.20
2023-04-04T14:11:04.832Z,55.70
2023-04-04T14:13:33.076Z,57.00
2023-04-04T14:16:00.038Z,58.30
2023-04-04T14:18:27.176Z,55.70
2023-04-04T14:20:54.142Z,54.40
2023-04-04T14:23:24.034Z,55.20
2023-04-04T14:25:53.520Z,55.50
2023-04-04T14:28:20.554Z,55.80
2023-04-04T14:30:49.538Z,55.60
2023-04-04T14:33:18.618Z,55.60
2023-04-04T14:35:45.699Z,56.20
2023-04-04T14:38:14.740Z,56.30
2023-04-04T14:40:41.654Z,56.80
2023-04-04T14:43:08.797Z,55.80
2023-04-04T14:45:35.767Z,56.40
2023-04-04T14:48:07.720Z,56.50
2023-04-04T14:50:34.766Z,54.90
2023-04-04T14:53:04.291Z,54.10
2023-04-04T14:55:31.541Z,54.30
2023-04-04T14:58:02.547Z,54.80
2023-04-04T15:00:30.428Z,55.40
2023-04-04T15:03:00.068Z,54.60
2023-04-04T15:05:27.353Z,55.50
2023-04-04T15:07:56.946Z,54.80
2023-04-04T15:10:26.608Z,55.50
2023-04-04T15:12:53.568Z,54.00
2023-04-04T15:15:22.245Z,53.80
2023-04-04T15:17:52.696Z,53.50
2023-04-04T15:20:24.852Z,54.70
2023-04-04T15:22:52.404Z,54.20
2023-04-04T15:25:19.331Z,54.00
2023-04-04T15:27:46.229Z,54.40
2023-04-04T15:30:16.149Z,54.30
2023-04-04T15:32:43.128Z,54.50
2023-04-04T15:35:20.700Z,55.30
2023-04-04T15:37:50.289Z,55.80
2023-04-04T15:40:20.671Z,55.20
2023-04-04T15:42:47.967Z,55.00
2023-04-04T15:45:17.511Z,55.00
2023-04-04T15:47:45.189Z,56.10
2023-04-04T15:50:14.373Z,55.50
2023-04-04T15:52:41.723Z,55.60
2023-04-04T15:55:17.030Z,56.10
2023-04-04T15:57:44.954Z,55.70
2023-04-04T16:00:13.440Z,53.70
2023-04-04T16:02:40.860Z,54.00
2023-04-04T16:05:08.545Z,53.50
2023-04-04T16:07:37.682Z,54.70
2023-04-04T16:10:07.418Z,54.40
2023-04-04T16:12:36.648Z,54.80
2023-04-04T16:15:05.402Z,54.60
2023-04-04T16:17:33.323Z,55.60
2023-04-04T16:20:00.295Z,55.60
2023-04-04T16:22:29.635Z,55.50
2023-04-04T16:24:56.432Z,55.20
2023-04-04T16:27:24.730Z,55.40
2023-04-04T16:29:53.801Z,55.60
2023-04-04T16:32:20.780Z,56.00
2023-04-04T16:34:47.709Z,55.50
2023-04-04T16:37:18.208Z,56.10
2023-04-04T16:39:49.040Z,55.00
2023-04-04T16:42:19.757Z,55.70
2023-04-04T16:44:47.559Z,55.50
2023-04-04T16:47:17.110Z,56.70
2023-04-04T16:49:49.054Z,55.60
2023-04-04T16:52:16.321Z,56.30
2023-04-04T16:54:43.275Z,58.30
2023-04-04T16:57:14.681Z,57.30
2023-04-04T16:59:41.587Z,57.80
2023-04-04T17:02:08.620Z,58.10
2023-04-04T17:04:36.066Z,58.30
2023-04-04T17:07:02.978Z,58.70
2023-04-04T17:09:30.781Z,58.50
2023-04-04T17:12:00.142Z,57.50
2023-04-04T17:14:27.623Z,58.10
2023-04-04T17:16:55.980Z,58.40
2023-04-04T17:19:25.813Z,57.90
2023-04-04T17:21:52.843Z,57.90
2023-04-04T17:24:25.538Z,58.30
2023-04-04T17:26:52.987Z,59.10
2023-04-04T17:29:26.713Z,59.70
2023-04-04T17:31:55.655Z,59.00
2023-04-04T17:34:23.555Z,59.00
2023-04-04T17:36:51.698Z,59.00
2023-04-04T17:39:19.174Z,59.70
2023-04-04T17:41:52.099Z,60.20
2023-04-04T17:44:22.162Z,60.50
2023-04-04T17:46:49.061Z,60.60
2023-04-04T17:49:20.555Z,61.10
2023-04-04T17:51:50.657Z,62.40
2023-04-04T17:54:20.788Z,62.10
2023-04-04T17:56:47.728Z,62.30
2023-04-04T17:59:19.056Z,63.10
2023-04-04T18:01:48.870Z,63.70
2023-04-04T18:04:19.396Z,63.90
2023-04-04T18:06:48.686Z,64.40
2023-04-04T18:09:15.658Z,64.50
2023-04-04T18:11:42.531Z,65.00
2023-04-04T18:14:09.852Z,66.00
2023-04-04T18:16:40.535Z,67.00
2023-04-04T18:19:09.505Z,66.40
2023-04-04T18:21:37.517Z,67.10
2023-04-04T18:24:07.372Z,67.20
2023-04-04T18:26:34.269Z,67.70
2023-04-04T18:29:01.164Z,68.00
2023-04-04T18:31:28.174Z,68.60
2023-04-04T18:33:56.824Z,68.90
2023-04-04T18:36:26.758Z,69.50
2023-04-04T18:38:53.600Z,70.10
2023-04-04T18:43:48.744Z,70.10
2023-04-04T18:46:16.089Z,71.90
2023-04-04T18:48:43.509Z,73.00
2023-04-04T18:51:10.501Z,73.50
2023-04-04T18:53:37.365Z,73.50
2023-04-04T18:56:04.257Z,73.00
2023-04-04T18:58:34.914Z,73.30
2023-04-04T19:01:04.594Z,73.00
2023-04-04T19:03:42.106Z,72.50
2023-04-04T19:06:17.615Z,72.70
2023-04-04T19:08:44.960Z,73.00
2023-04-04T19:11:12.363Z,73.80
2023-04-04T19:13:39.646Z,73.30
2023-04-04T19:16:08.840Z,74.00
2023-04-04T19:18:35.956Z,74.10
2023-04-04T19:21:03.172Z,75.60
2023-04-04T19:23:30.083Z,74.30
2023-04-04T19:25:59.637Z,75.20
2023-04-04T19:28:26.595Z,75.40
2023-04-04T19:30:54.729Z,75.60
2023-04-04T19:33:26.006Z,76.40
2023-04-04T19:36:00.455Z,77.00
2023-04-04T19:38:33.987Z,76.20
2023-04-04T19:41:02.419Z,76.10
2023-04-04T19:43:30.975Z,75.70
2023-04-04T19:45:59.862Z,77.00
2023-04-04T19:48:44.932Z,77.20
2023-04-04T19:51:17.690Z,78.10
2023-04-04T19:53:50.007Z,78.70
2023-04-04T19:56:21.560Z,79.10
2023-04-04T19:58:53.138Z,77.70
2023-04-04T20:01:28.540Z,78.00
2023-04-04T20:03:56.548Z,78.70
2023-04-04T20:06:28.478Z,78.50
2023-04-04T20:09:00.817Z,77.90
2023-04-04T20:11:32.320Z,77.70
2023-04-04T20:14:09.950Z,77.70
2023-04-04T20:16:37.011Z,77.80
2023-04-04T20:19:08.538Z,79.20
2023-04-04T20:21:37.857Z,79.00
2023-04-04T20:24:08.546Z,78.90
2023-04-04T20:26:59.979Z,79.00
2023-04-04T20:29:34.702Z,79.80
2023-04-04T20:32:04.160Z,79.90
2023-04-04T20:34:36.361Z,79.50
2023-04-04T20:37:05.809Z,79.00
2023-04-04T20:39:41.643Z,79.00
2023-04-04T20:42:50.685Z,79.80
2023-04-04T20:45:26.403Z,79.90
2023-04-04T20:47:55.125Z,79.90
2023-04-04T20:50:27.203Z,80.60
2023-04-04T20:53:04.462Z,80.70
2023-04-04T20:55:35.690Z,80.30
2023-04-04T20:58:09.828Z,80.40
2023-04-04T21:00:40.613Z,81.20
2023-04-04T21:03:29.285Z,81.70
2023-04-04T21:06:01.852Z,81.80
2023-04-04T21:08:57.453Z,82.00
2023-04-04T21:11:28.796Z,82.00
2023-04-04T21:16:26.716Z,82.40
2023-04-04T21:19:08.265Z,82.20
2023-04-04T21:24:10.575Z,82.50
2023-04-04T21:26:39.830Z,83.40
2023-04-04T21:29:16.718Z,83.70
2023-04-04T21:31:44.187Z,83.80
2023-04-04T21:34:20.115Z,84.60
2023-04-04T21:37:01.148Z,85.10
2023-04-04T21:39:32.462Z,85.00
2023-04-04T21:42:04.676Z,85.70
2023-04-04T21:47:00.950Z,85.80
2023-04-04T21:49:53.415Z,87.40
2023-04-04T21:52:24.304Z,87.20
2023-04-04T21:54:51.810Z,87.80
2023-04-04T21:59:46.145Z,87.70
2023-04-04T22:02:13.208Z,89.00
2023-04-04T22:04:42.370Z,88.50
2023-04-04T22:07:13.149Z,88.70
2023-04-04T22:12:16.003Z,88.90
2023-04-04T22:14:43.795Z,91.40
2023-04-04T22:17:15.302Z,91.40
2023-04-04T22:19:46.748Z,92.20
2023-04-04T22:22:13.641Z,92.10
2023-04-04T22:27:08.031Z,90.80
2023-04-04T22:29:35.001Z,91.10
2023-04-04T22:32:01.971Z,91.20
2023-04-04T22:34:29.868Z,91.30
2023-04-04T22:36:59.318Z,91.40
2023-04-04T22:39:30.772Z,91.70
2023-04-04T22:41:57.730Z,91.30
2023-04-04T22:44:25.236Z,91.50
2023-04-04T22:46:52.703Z,91.60
2023-04-04T22:49:22.353Z,91.80
2023-04-04T22:51:49.287Z,91.90
2023-04-04T22:54:16.772Z,91.90
2023-04-04T22:56:44.229Z,92.40
2023-04-04T22:59:11.439Z,92.40
2023-04-04T23:01:38.645Z,92.40
2023-04-04T23:04:05.781Z,92.90
2023-04-04T23:06:32.801Z,93.00
2023-04-04T23:08:59.663Z,93.10
2023-04-04T23:11:27.699Z,93.30
2023-04-04T23:13:57.093Z,93.30
2023-04-04T23:16:26.312Z,93.60
2023-04-04T23:18:56.084Z,93.50
2023-04-04T23:21:25.201Z,93.50
2023-04-04T23:23:52.119Z,93.80
2023-04-04T23:26:21.318Z,94.50
2023-04-04T23:28:48.937Z,93.90
2023-04-04T23:31:18.465Z,94.10
2023-04-04T23:33:45.358Z,94.30
2023-04-04T23:36:17.765Z,94.70
2023-04-04T23:38:47.234Z,94.70
2023-04-04T23:41:14.087Z,94.20
2023-04-04T23:43:43.176Z,94.10
2023-04-04T23:46:10.637Z,94.30
2023-04-04T23:48:37.500Z,94.30
2023-04-04T23:51:08.580Z,94.30
2023-04-04T23:53:38.003Z,94.50
2023-04-04T23:56:05.337Z,94.40
2023-04-04T23:58:34.801Z,94.30
